Aitutaki, Aitutaki Airport (NCAI)

NameAitutaki Airport
CityAitutaki
CountryCook Islands
ICAONCAI
IATAAIT
Altitude4 m
CoordinatesGoogle Map
Live Air TrafficLiveATC.net
METARNCAI 171800Z AUTO 02010KT //// ////// 27/24 Q1015
2019-08-17 18:00:00 Wind: North (20°) 5.14 m/s - Visibility: 201 m - Temperature: 27 °C - Dew point: 24 °C - Humidity: 83.7% - Pressure: 1015 hPa

Sorry, no flights used the airport in this database.